Data for 10/29/2007

Time Sea-Level Adjusted Pressure Absolute Pressure Temperature Relative Humidity Dew Point   
(mb) (inHg) (mb) (inHg) (C) (F) (%) (C) (F)
00:05 1025 30.27 854 25.22 8.7 47.6 38 -4.7 23.5
00:10 1025 30.27 854 25.22 8.4 47.1 39 -4.6 23.8
00:15 1025 30.27 854 25.22 8.2 46.7 40 -4.8 23.4
00:20 1025 30.27 854 25.22 8 46.4 39 -5 23
00:25 1025 30.27 854 25.22 8.2 46.7 39 -5 22.9
00:30 1025 30.27 854 25.22 8.2 46.8 39 -4.9 23.2
00:35 1025 30.27 854 25.22 8.1 46.6 39 -5 23
00:40 1025 30.27 854 25.22 8.1 46.6 39 -4.9 23.2
00:45 1025 30.27 854 25.22 7.9 46.3 40 -5 23
00:50 1025 30.27 854 25.22 8.1 46.5 40 -4.7 23.5
00:55 1025 30.27 854 25.22 8 46.5 39 -5.2 22.6
01:00 1025 30.27 854 25.22 8.2 46.8 40 -4.7 23.5
01:05 1025 30.27 854 25.22 7.8 46.1 41 -4.7 23.6
01:10 1025 30.27 854 25.22 7.6 45.6 41 -4.9 23.2
01:15 1025 30.27 854 25.22 7.5 45.6 41 -4.7 23.5
01:20 1025 30.27 854 25.22 7.4 45.4 41 -4.8 23.3
01:25 1025 30.27 854 25.22 7.5 45.6 41 -4.8 23.4
01:30 1025 30.27 854 25.22 7.4 45.4 42 -4.5 23.8
01:35 1025 30.27 854 25.22 7.2 45 42 -4.8 23.4
01:40 1025 30.27 854 25.22 7.3 45.1 42 -4.8 23.4
01:45 1025 30.27 854 25.22 7.4 45.3 41 -5 23
01:50 1025 30.27 854 25.22 7.8 46.1 40 -4.8 23.4
01:55 1025 30.27 854 25.22 7.9 46.1 40 -4.8 23.3
02:00 1025 30.27 854 25.22 7.8 46.1 41 -4.7 23.5
02:05 1025 30.27 854 25.22 7.7 45.8 41 -4.7 23.5
02:10 1025 30.27 854 25.22 7.4 45.4 43 -4.4 24
02:15 1025 30.27 854 25.22 7.1 44.7 43 -4.6 23.7
02:20 1025 30.27 854 25.22 7 44.7 42 -4.9 23.2
02:25 1025 30.27 854 25.22 7.3 45.2 41 -5 23.1
02:30 1025 30.27 854 25.22 7.4 45.4 41 -5 23
02:35 1025 30.27 854 25.22 7.6 45.6 41 -4.9 23.1
02:40 1025 30.27 854 25.22 7.5 45.5 41 -4.9 23.1
02:45 1025 30.27 854 25.22 7.6 45.7 41 -4.8 23.4
02:50 1025 30.27 854 25.22 7.6 45.7 41 -4.8 23.4
02:55 1025 30.27 854 25.22 7.6 45.7 43 -4.3 24.3
03:00 1025 30.27 854 25.22 6.9 44.4 44 -4.5 23.9
03:05 1025 30.27 854 25.22 7.2 44.9 43 -4.6 23.6
03:10 1025 30.27 854 25.22 7.3 45.1 42 -4.8 23.4
03:15 1025 30.27 854 25.22 7.4 45.3 42 -4.6 23.7
03:20 1025 30.27 854 25.22 7 44.6 45 -4 24.7
03:25 1025 30.27 854 25.22 6.6 43.9 47 -3.9 25
03:30 1025 30.27 854 25.22 6.4 43.5 46 -4.3 24.2
03:35 1025 30.27 854 25.22 6.7 44.1 46 -4.2 24.4
03:40 1024 30.24 854 25.22 6.8 44.3 46 -4.1 24.6
03:45 1024 30.24 854 25.22 6.8 44.2 46 -3.9 25
03:50 1024 30.24 854 25.22 6.5 43.7 44 -4.8 23.4
03:55 1024 30.24 854 25.22 6.6 43.8 45 -4.6 23.7
04:00 1024 30.24 854 25.22 6.3 43.3 48 -4 24.8
04:05 1024 30.24 854 25.22 6.2 43.2 44 -5.2 22.6
04:10 1024 30.24 853 25.19 6.8 44.2 45 -4.5 24
04:15 1024 30.24 853 25.19 6.6 43.8 46 -4.1 24.6
04:20 1024 30.24 853 25.19 6.3 43.3 46 -4.5 23.9
04:25 1024 30.24 853 25.19 6.5 43.8 45 -4.5 23.9
04:30 1024 30.24 853 25.19 6.7 44.1 44 -4.5 23.8
04:35 1024 30.24 853 25.19 6.7 44.1 44 -4.6 23.7
04:40 1024 30.24 853 25.19 6.8 44.2 43 -4.8 23.3
04:45 1024 30.24 853 25.19 7.4 45.4 43 -4.4 24
04:50 1024 30.24 854 25.22 7.7 45.9 40 -4.9 23.2
04:55 1024 30.24 854 25.22 8.2 46.8 39 -4.9 23.1
05:00 1024 30.24 854 25.22 8.3 46.9 40 -4.6 23.8
05:05 1024 30.24 854 25.22 7.8 46 42 -4.4 24.1
05:10 1024 30.24 853 25.19 7.7 45.8 41 -4.6 23.7
05:15 1024 30.24 853 25.19 7.4 45.3 45 -3.7 25.3
05:20 1024 30.24 853 25.19 6.7 44 46 -4.3 24.3
05:25 1024 30.24 853 25.19 6.9 44.5 44 -4.3 24.2
05:30 1024 30.24 853 25.19 6.8 44.3 48 -3.6 25.6
05:35 1024 30.24 853 25.19 6.5 43.6 48 -3.9 25
05:40 1024 30.24 853 25.19 6.6 43.9 47 -3.8 25.2
05:45 1024 30.24 853 25.19 6.3 43.3 49 -3.6 25.4
05:50 1024 30.24 853 25.19 6 42.8 50 -3.7 25.3
05:55 1024 30.24 853 25.19 6 42.9 49 -3.8 25.1
06:00 1024 30.24 853 25.19 6.1 43 50 -3.7 25.4
06:05 1024 30.24 853 25.19 5.8 42.4 51 -3.7 25.4
06:10 1024 30.24 853 25.19 5.9 42.6 49 -3.9 24.9
06:15 1024 30.24 853 25.19 6.1 42.9 50 -3.7 25.4
06:20 1024 30.24 853 25.19 5.9 42.7 52 -3.3 26.1
06:25 1024 30.24 853 25.19 5.5 41.8 53 -3.3 26
06:30 1024 30.24 853 25.19 5.4 41.6 52 -3.6 25.5
06:35 1024 30.24 853 25.19 5.4 41.8 52 -3.6 25.6
06:40 1024 30.24 853 25.19 5.7 42.3 50 -3.8 25.2
06:45 1024 30.24 853 25.19 6.1 42.9 51 -3.3 26
06:50 1024 30.24 853 25.19 6 42.8 50 -3.6 25.6
06:55 1024 30.24 853 25.19 6.1 42.9 50 -3.7 25.4
07:00 1024 30.24 853 25.19 6.2 43.1 48 -3.9 24.9
07:05 1024 30.24 853 25.19 6.4 43.5 47 -4.1 24.6
07:10 1024 30.24 853 25.19 6.6 43.8 47 -4 24.8
07:15 1024 30.24 853 25.19 6.6 44 48 -3.7 25.4
07:20 1024 30.24 853 25.19 6.5 43.8 47 -3.9 25.1
07:25 1024 30.24 853 25.19 6.9 44.4 48 -3.5 25.7
07:30 1024 30.24 853 25.19 6.5 43.8 50 -3.1 26.4
07:35 1024 30.24 853 25.19 6.3 43.4 49 -3.7 25.4
07:40 1024 30.24 853 25.19 6.8 44.2 48 -3.4 25.8
07:45 1024 30.24 853 25.19 6.6 43.8 51 -3 26.7
07:50 1024 30.24 853 25.19 6.2 43.2 50 -3.5 25.7
07:55 1024 30.24 853 25.19 6.7 44 50 -3.1 26.4
08:00 1024 30.24 853 25.19 6.1 43 53 -2.7 27.1
08:05 1024 30.24 853 25.19 6 42.8 51 -3.4 25.8
08:10 1024 30.24 853 25.19 6.3 43.3 48 -4 24.9
08:15 1024 30.24 853 25.19 6.4 43.5 49 -3.7 25.4
08:20 1024 30.24 853 25.19 6.6 43.8 48 -3.5 25.7
08:25 1024 30.24 853 25.19 6.7 44.1 46 -4 24.8
08:30 1024 30.24 853 25.19 7.5 45.6 43 -4.3 24.3
08:35 1023 30.21 853 25.19 8.1 46.5 42 -4 24.8
08:40 1023 30.21 853 25.19 8.1 46.7 42 -3.9 24.9
08:45 1023 30.21 853 25.19 7.8 46.1 45 -3.3 26.1
08:50 1023 30.21 853 25.19 7 44.5 47 -3.5 25.7
08:55 1023 30.21 853 25.19 6.7 44.1 47 -3.7 25.3
09:00 1023 30.21 853 25.19 6.8 44.3 48 -3.4 25.9
09:05 1023 30.21 853 25.19 6.7 44 48 -3.5 25.7
09:10 1023 30.21 853 25.19 6.8 44.3 48 -3.3 26
09:15 1023 30.21 853 25.19 7 44.5 47 -3.5 25.8
09:20 1023 30.21 853 25.19 7.2 44.9 47 -3.5 25.7
09:25 1023 30.21 853 25.19 7.4 45.2 46 -3.5 25.8
09:30 1023 30.21 853 25.19 7.6 45.6 45 -3.6 25.6
09:35 1023 30.21 853 25.19 7.7 45.8 45 -3.4 25.9
09:40 1023 30.21 853 25.19 7.7 45.9 46 -3.2 26.2
09:45 1023 30.21 853 25.19 7.8 46 45 -3.4 25.8
09:50 1023 30.21 853 25.19 8 46.3 45 -3.3 26
09:55 1023 30.21 853 25.19 8.2 46.7 44 -3.2 26.2
10:00 1023 30.21 853 25.19 8.4 47.2 44 -3.1 26.3
10:05 1023 30.21 853 25.19 8.7 47.6 44 -3 26.7
10:10 1023 30.21 853 25.19 9 48.3 43 -3 26.7
10:15 1023 30.21 853 25.19 9.9 49.9 40 -3 26.6
10:20 1023 30.21 853 25.19 10.7 51.2 40 -2.5 27.5
10:25 1023 30.21 853 25.19 11.3 52.3 38 -2.4 27.7
10:30 1023 30.21 853 25.19 11.5 52.7 38 -2.2 28.1
10:35 1023 30.21 853 25.19 11.8 53.3 38 -2.1 28.2
10:40 1023 30.21 853 25.19 11.7 53 36 -2.8 26.9
10:45 1023 30.21 852 25.16 11.4 52.4 35 -3.4 25.9
10:50 1023 30.21 852 25.16 11.6 52.8 36 -2.8 26.9
10:55 1023 30.21 852 25.16 12.3 54.2 34 -3.2 26.2
11:00 1023 30.21 852 25.16 12.8 55 33 -3.1 26.4
11:05 1023 30.21 852 25.16 13.3 55.9 32 -3.2 26.3
11:10 1023 30.21 852 25.16 13 55.3 34 -2.5 27.6
11:15 1023 30.21 852 25.16 13.1 55.6 33 -2.7 27.1
11:20 1023 30.21 852 25.16 13.2 55.8 34 -2.3 27.8
11:25 1023 30.21 852 25.16 13.4 56 33 -2.4 27.7
11:30 1023 30.21 852 25.16 13 55.4 34 -2.3 27.8
11:35 1023 30.21 852 25.16 12.9 55.2 34 -2.5 27.5
11:40 1023 30.21 852 25.16 13.1 55.5 35 -2.2 28.1
11:45 1023 30.21 852 25.16 14.2 57.5 32 -2.1 28.2
11:50 1023 30.21 852 25.16 14.8 58.6 32 -1.8 28.8
11:55 1023 30.21 852 25.16 15.1 59.1 30 -2.1 28.2
12:00 1023 30.21 852 25.16 15.8 60.5 29 -2 28.3
12:05 1023 30.21 852 25.16 16.4 61.4 28 -2 28.3
12:10 1023 30.21 852 25.16 15.8 60.4 30 -1.5 29.3
12:15 1022 30.18 852 25.16 14.8 58.7 31 -1.9 28.5
12:20 1022 30.18 852 25.16 15 58.9 31 -2 28.3
12:25 1022 30.18 852 25.16 14 57.2 33 -1.8 28.7
12:30 1022 30.18 851 25.13 14 57.2 32 -2.6 27.4
12:35 1022 30.18 851 25.13 14.1 57.4 32 -2.3 27.8
12:40 1022 30.18 851 25.13 13.6 56.5 33 -2.4 27.6
12:45 1022 30.18 851 25.13 13.9 57.1 31 -2.8 27
12:50 1022 30.18 851 25.13 15.1 59.3 29 -2.7 27.1
12:55 1022 30.18 851 25.13 15.4 59.8 30 -1.9 28.6
13:00 1022 30.18 851 25.13 15.4 59.7 29 -2.3 27.9
13:05 1022 30.18 851 25.13 16.1 61 28 -2.5 27.5
13:10 1022 30.18 851 25.13 16.1 61 27 -3 26.7
13:15 1022 30.18 851 25.13 17.2 63 26 -2.5 27.5
13:20 1021 30.15 851 25.13 17 62.5 26 -2.4 27.6
13:25 1021 30.15 850 25.1 16.4 61.5 26 -3.3 26
13:30 1021 30.15 850 25.1 16.6 61.8 25 -3.4 26
13:35 1021 30.15 850 25.1 17.4 63.4 24 -3.4 25.8
13:40 1021 30.15 850 25.1 18.1 64.6 23 -3.1 26.4
13:45 1021 30.15 850 25.1 17.8 64 24 -2.7 27.1
13:50 1021 30.15 850 25.1 17.9 64.3 23 -3.5 25.8
13:55 1021 30.15 850 25.1 18.6 65.5 23 -2.9 26.9
14:00 1021 30.15 850 25.1 17.6 63.6 25 -2.6 27.3
14:05 1021 30.15 850 25.1 18.2 64.7 23 -3.4 25.9
14:10 1020 30.12 850 25.1 18.5 65.3 24 -2.1 28.2
14:15 1020 30.12 850 25.1 17.4 63.4 26 -2 28.4
14:20 1020 30.12 850 25.1 16.8 62.3 26 -2.5 27.5
14:25 1020 30.12 849 25.07 17.1 62.7 26 -2.4 27.7
14:30 1020 30.12 849 25.07 17 62.6 26 -2.6 27.4
14:35 1020 30.12 849 25.07 17.2 63 27 -1.9 28.6
14:40 1020 30.12 849 25.07 17.4 63.2 26 -2 28.4
14:45 1020 30.12 849 25.07 16.8 62.2 28 -1.8 28.8
14:50 1020 30.12 849 25.07 17 62.7 28 -1.7 29
14:55 1020 30.12 849 25.07 16.9 62.3 28 -1.6 29.1
15:00 1020 30.12 849 25.07 16.9 62.4 28 -1.8 28.8
15:05 1020 30.12 849 25.07 16.3 61.3 29 -1.9 28.6
15:10 1020 30.12 849 25.07 16.2 61.1 29 -1.8 28.8
15:15 1020 30.12 849 25.07 15.9 60.7 29 -2 28.4
15:20 1020 30.12 849 25.07 16.3 61.3 28 -2 28.4
15:25 1020 30.12 849 25.07 16.2 61.1 29 -1.8 28.8
15:30 1020 30.12 849 25.07 16.4 61.4 28 -1.9 28.5
15:35 1020 30.12 849 25.07 16.7 62 28 -1.6 29.1
15:40 1020 30.12 849 25.07 16.6 61.9 30 -1.2 29.9
15:45 1020 30.12 849 25.07 16.3 61.3 30 -1.4 29.4
15:50 1019 30.09 849 25.07 16.1 61 31 -1.1 30
15:55 1019 30.09 849 25.07 16 60.9 31 -0.9 30.3
16:00 1019 30.09 849 25.07 15.8 60.5 31 -1.2 29.8
16:05 1019 30.09 849 25.07 15.8 60.4 30 -1.6 29.2
16:10 1019 30.09 849 25.07 15.9 60.5 30 -1.4 29.5
16:15 1019 30.09 849 25.07 15.7 60.3 30 -1.6 29.2
16:20 1019 30.09 849 25.07 15.6 60 30 -1.7 29
16:25 1019 30.09 849 25.07 15.7 60.3 30 -1.6 29.1
16:30 1019 30.09 849 25.07 16 60.7 30 -1.4 29.5
16:35 1019 30.09 849 25.07 16.1 60.9 30 -1.2 29.8
16:40 1019 30.09 849 25.07 16.1 61 31 -0.9 30.4
16:45 1019 30.09 849 25.07 16 60.7 32 -0.7 30.7
16:50 1019 30.09 849 25.07 15.9 60.6 31 -1.1 30.1
16:55 1019 30.09 849 25.07 15.9 60.7 32 -0.6 30.9
17:00 1019 30.09 848 25.04 15.9 60.7 32 -0.6 30.9
17:05 1019 30.09 848 25.04 15.8 60.5 32 -0.9 30.5
17:10 1019 30.09 848 25.04 15.7 60.2 32 -1 30.2
17:15 1019 30.09 848 25.04 15.7 60.2 33 -0.6 30.9
17:20 1019 30.09 848 25.04 15.7 60.2 33 -0.5 31.1
17:25 1019 30.09 848 25.04 15.6 60 32 -0.8 30.5
17:30 1019 30.09 848 25.04 15.2 59.4 33 -0.8 30.6
17:35 1019 30.09 848 25.04 15 58.9 35 -0.4 31.3
17:40 1019 30.09 848 25.04 14.8 58.7 34 -0.9 30.4
17:45 1019 30.09 848 25.04 14.6 58.2 35 -0.6 30.8
17:50 1019 30.09 848 25.04 14.6 58.3 35 -0.6 30.9
17:55 1019 30.09 848 25.04 14.5 58.1 35 -0.7 30.8
18:00 1019 30.09 848 25.04 14.5 58.1 35 -0.9 30.4
18:05 1019 30.09 848 25.04 14.5 58 35 -0.7 30.7
18:10 1019 30.09 848 25.04 14.2 57.5 38 0.1 32.1
18:15 1019 30.09 848 25.04 13.6 56.4 39 -0.1 31.8
18:20 1019 30.09 848 25.04 13.1 55.6 41 0.1 32.2
18:25 1019 30.09 848 25.04 12.8 55 41 0.1 32.1
18:30 1019 30.09 848 25.04 13 55.5 38 -0.9 30.5
18:35 1019 30.09 848 25.04 13.4 56.1 38 -0.6 31
18:40 1019 30.09 848 25.04 13.1 55.5 42 0.5 32.9
18:45 1019 30.09 848 25.04 12.3 54.2 45 0.8 33.4
18:50 1019 30.09 848 25.04 11.9 53.3 46 0.6 33
18:55 1019 30.09 848 25.04 11.9 53.4 47 0.9 33.6
19:00 1019 30.09 848 25.04 11.5 52.7 47 0.8 33.4
19:05 1019 30.09 848 25.04 11.3 52.3 48 0.6 33.1
19:10 1019 30.09 848 25.04 11.6 52.9 43 -0.5 31.1
19:15 1019 30.09 848 25.04 12.3 54.1 42 -0.2 31.7
19:20 1019 30.09 848 25.04 12.6 54.7 41 -0.2 31.6
19:25 1019 30.09 848 25.04 12.4 54.4 42 0 32
19:30 1019 30.09 848 25.04 12.3 54.2 44 0.6 33
19:35 1019 30.09 848 25.04 11.7 53.1 46 0.4 32.8
19:40 1018 30.06 848 25.04 11.3 52.3 47 0.5 32.9
19:45 1018 30.06 848 25.04 11.1 52.1 46 -0 31.9
19:50 1018 30.06 848 25.04 11.5 52.7 45 0.2 32.3
19:55 1018 30.06 847 25.01 11.4 52.6 47 0.6 33.1
20:00 1018 30.06 848 25.04 11.3 52.3 47 0.3 32.6
20:05 1018 30.06 847 25.01 11.3 52.4 46 0.1 32.1
20:10 1018 30.06 847 25.01 11.7 53.1 45 0.3 32.5
20:15 1018 30.06 847 25.01 11.7 53.1 45 0.3 32.5
20:20 1018 30.06 847 25.01 11.6 52.9 48 1 33.8
20:25 1018 30.06 848 25.04 11 51.8 50 1.1 33.9
20:30 1018 30.06 847 25.01 10.6 51.2 51 1 33.8
20:35 1018 30.06 847 25.01 10.5 50.9 51 0.8 33.4
20:40 1018 30.06 847 25.01 10.4 50.8 52 1 33.7
20:45 1018 30.06 847 25.01 10.4 50.7 52 1.1 34.1
20:50 1018 30.06 847 25.01 10.3 50.5 52 0.9 33.6
20:55 1018 30.06 847 25.01 10.3 50.6 51 0.7 33.2
21:00 1018 30.06 847 25.01 10.4 50.7 51 0.8 33.4
21:05 1018 30.06 847 25.01 10.5 50.8 51 0.8 33.4
21:10 1018 30.06 847 25.01 10.4 50.8 51 0.8 33.4
21:15 1018 30.06 847 25.01 10.3 50.5 52 0.9 33.6
21:20 1018 30.06 847 25.01 10.2 50.4 51 0.6 33
21:25 1018 30.06 847 25.01 10.3 50.6 51 0.5 33
21:30 1018 30.06 847 25.01 10.4 50.6 50 0.3 32.6
21:35 1018 30.06 847 25.01 10.5 50.9 49 0.4 32.7
21:40 1018 30.06 847 25.01 10.5 50.9 49 0.3 32.5
21:45 1018 30.06 847 25.01 10.6 51.1 48 0.2 32.4
21:50 1018 30.06 847 25.01 10.8 51.4 48 0.3 32.5
21:55 1018 30.06 847 25.01 10.9 51.7 47 0.2 32.4
22:00 1018 30.06 847 25.01 10.9 51.7 48 0.3 32.5
22:05 1018 30.06 847 25.01 10.9 51.6 48 0.4 32.6
22:10 1018 30.06 847 25.01 11 51.7 47 0.1 32.2
22:15 1017 30.03 847 25.01 11.1 52 47 0.1 32.2
22:20 1017 30.03 847 25.01 11.2 52.2 46 0.1 32.2
22:25 1017 30.03 847 25.01 11.3 52.4 46 0.2 32.4
22:30 1017 30.03 847 25.01 11.3 52.4 47 0.4 32.7
22:35 1017 30.03 847 25.01 11.1 51.9 49 0.9 33.7
22:40 1017 30.03 847 25.01 10.7 51.3 50 0.7 33.3
22:45 1017 30.03 847 25.01 10.5 50.9 52 1.2 34.1
22:50 1017 30.03 846 24.98 10.1 50.2 52 0.7 33.3
22:55 1017 30.03 846 24.98 10.3 50.6 51 0.8 33.4
23:00 1017 30.03 846 24.98 10.6 51 50 0.7 33.3
23:05 1017 30.03 846 24.98 10.6 51.1 51 1 33.8
23:10 1017 30.03 846 24.98 10.3 50.5 52 1 33.9
23:15 1017 30.03 846 24.98 10.2 50.3 53 1 33.8
23:20 1017 30.03 846 24.98 9.9 49.8 55 1.4 34.5
23:25 1017 30.03 846 24.98 9.4 49 56 1.2 34.1
23:30 1017 30.03 846 24.98 9.3 48.8 56 0.9 33.7
23:35 1017 30.03 846 24.98 9.6 49.3 55 1 33.8
23:40 1017 30.03 846 24.98 9.9 49.8 51 0.4 32.7
23:45 1017 30.03 846 24.98 10.4 50.7 51 0.8 33.5
23:50 1017 30.03 846 24.98 10.5 50.8 51 0.9 33.6
23:55 1017 30.03 846 24.98 10.3 50.6 54 1.4 34.4
24:00 1017 30.03 846 24.98 10 49.9 55 1.4 34.6